CFG1VU EDDF-LGKR
Flight info
| Callsign | CFG1VU |
|---|---|
| Flight time | 1h 59m |
| Altitude | 35000 |
| Route | CINDY5L CINDY Z74 LAMPU DCT NOMBO Y161 MAH DCT VAVOR DCT RADIZ DCT NERRA DCT KOFER DCT RODON DCT LIMJA N732 PITAS |
| Aircraft | A21N/M-SDE3FGHIRWY/LB1 |
Departure
| Time | 2026-05-04 08:33 |
|---|---|
| Airport | Frankfurt Main Airport (EDDF) |
Arrival
| Time | 2026-05-04 10:32 |
|---|---|
| Airport | Corfu Ioannis Kapodistrias International Airport (LGKR) |
| Time | Latitude | Longitude | Altitude | Speed | Heading |
|---|---|---|---|---|---|
| 2026-05-04 08:10 | 50.04435 | 8.56329 | 357 ft | 0 kts | 170° |
| 2026-05-04 08:22 | 50.04447 | 8.56326 | 357 ft | 2 kts | 170° |
| 2026-05-04 08:24 | 50.04516 | 8.56380 | 358 ft | 0 kts | 251° |
| 2026-05-04 08:25 | 50.04516 | 8.56379 | 358 ft | 0 kts | 251° |
| 2026-05-04 08:25 | 50.04510 | 8.56359 | 358 ft | 5 kts | 250° |
| 2026-05-04 08:26 | 50.04491 | 8.56275 | 357 ft | 9 kts | 250° |
| 2026-05-04 08:27 | 50.04171 | 8.55655 | 353 ft | 14 kts | 248° |
| 2026-05-04 08:28 | 50.04134 | 8.55502 | 352 ft | 15 kts | 252° |
| 2026-05-04 08:28 | 50.04097 | 8.55348 | 352 ft | 15 kts | 249° |
| 2026-05-04 08:28 | 50.04059 | 8.55186 | 351 ft | 16 kts | 250° |
| 2026-05-04 08:28 | 50.04022 | 8.55035 | 350 ft | 15 kts | 249° |
| 2026-05-04 08:29 | 50.03985 | 8.54883 | 349 ft | 15 kts | 250° |
| 2026-05-04 08:29 | 50.03948 | 8.54723 | 348 ft | 16 kts | 250° |
| 2026-05-04 08:29 | 50.03908 | 8.54559 | 347 ft | 16 kts | 250° |
| 2026-05-04 08:31 | 50.03586 | 8.53342 | 341 ft | 18 kts | 249° |
| 2026-05-04 08:33 | 50.01495 | 8.52608 | 397 ft | 171 kts | 181° |
| 2026-05-04 08:33 | 50.00327 | 8.52593 | 1002 ft | 171 kts | 181° |
| 2026-05-04 08:35 | 49.94004 | 8.61577 | 4473 ft | 246 kts | 97° |
| 2026-05-04 08:35 | 49.93873 | 8.64295 | 4893 ft | 262 kts | 94° |
| 2026-05-04 08:35 | 49.93769 | 8.67217 | 5390 ft | 275 kts | 97° |
| 2026-05-04 08:35 | 49.93137 | 8.70004 | 6050 ft | 278 kts | 128° |
| 2026-05-04 08:37 | 49.85519 | 8.83515 | 10474 ft | 295 kts | 121° |
| 2026-05-04 08:37 | 49.84493 | 8.86388 | 10834 ft | 312 kts | 121° |
| 2026-05-04 08:37 | 49.83418 | 8.89371 | 11148 ft | 328 kts | 121° |
| 2026-05-04 08:38 | 49.82290 | 8.92490 | 11656 ft | 337 kts | 121° |
| 2026-05-04 08:38 | 49.81134 | 8.95678 | 12313 ft | 341 kts | 122° |
| 2026-05-04 08:38 | 49.79966 | 8.98893 | 12969 ft | 344 kts | 122° |
| 2026-05-04 08:40 | 49.72512 | 9.22717 | 17189 ft | 361 kts | 133° |
| 2026-05-04 08:40 | 49.70852 | 9.25673 | 17744 ft | 363 kts | 134° |
| 2026-05-04 08:40 | 49.69188 | 9.28561 | 18261 ft | 367 kts | 134° |
| 2026-05-04 08:41 | 49.66916 | 9.32521 | 18953 ft | 371 kts | 134° |
| 2026-05-04 08:41 | 49.65777 | 9.34519 | 19285 ft | 373 kts | 134° |
| 2026-05-04 08:41 | 49.64055 | 9.37548 | 19772 ft | 376 kts | 134° |
| 2026-05-04 08:41 | 49.62227 | 9.40397 | 20245 ft | 377 kts | 141° |
| 2026-05-04 08:42 | 49.60175 | 9.42904 | 20720 ft | 378 kts | 148° |
| 2026-05-04 08:42 | 49.57941 | 9.45083 | 21189 ft | 379 kts | 152° |
| 2026-05-04 08:42 | 49.55682 | 9.47148 | 21648 ft | 382 kts | 152° |
| 2026-05-04 08:42 | 49.53413 | 9.49201 | 22092 ft | 384 kts | 152° |
| 2026-05-04 08:43 | 49.51098 | 9.51297 | 22530 ft | 387 kts | 152° |
| 2026-05-04 08:43 | 49.48774 | 9.53408 | 22953 ft | 390 kts | 152° |
| 2026-05-04 08:43 | 49.46437 | 9.55533 | 23363 ft | 393 kts | 152° |
| 2026-05-04 08:43 | 49.44085 | 9.57672 | 23786 ft | 395 kts | 152° |
| 2026-05-04 08:44 | 49.41706 | 9.59833 | 24202 ft | 397 kts | 152° |
| 2026-05-04 08:44 | 49.39343 | 9.61979 | 24615 ft | 399 kts | 152° |
| 2026-05-04 08:46 | 49.24216 | 9.81757 | 27154 ft | 421 kts | 139° |
| 2026-05-04 08:46 | 49.22143 | 9.84922 | 27484 ft | 423 kts | 139° |
| 2026-05-04 08:46 | 49.20047 | 9.88113 | 27809 ft | 425 kts | 139° |
| 2026-05-04 08:46 | 49.17940 | 9.91313 | 28123 ft | 427 kts | 139° |
| 2026-05-04 08:47 | 49.15824 | 9.94520 | 28441 ft | 429 kts | 139° |
| 2026-05-04 08:47 | 49.13715 | 9.97714 | 28752 ft | 431 kts | 139° |
| 2026-05-04 08:47 | 49.11575 | 10.00950 | 29051 ft | 433 kts | 139° |
| 2026-05-04 08:47 | 49.09438 | 10.04175 | 29342 ft | 435 kts | 139° |
| 2026-05-04 08:48 | 49.07287 | 10.07421 | 29642 ft | 437 kts | 139° |
| 2026-05-04 08:48 | 49.05109 | 10.10653 | 29936 ft | 438 kts | 140° |
| 2026-05-04 08:48 | 49.02860 | 10.13849 | 30223 ft | 440 kts | 140° |
| 2026-05-04 08:48 | 49.00604 | 10.17009 | 30489 ft | 442 kts | 141° |
| 2026-05-04 08:49 | 48.98343 | 10.20179 | 30751 ft | 445 kts | 140° |
| 2026-05-04 08:50 | 48.84616 | 10.39527 | 32773 ft | 446 kts | 141° |
| 2026-05-04 08:50 | 48.82389 | 10.42790 | 33121 ft | 446 kts | 137° |
| 2026-05-04 08:51 | 48.80255 | 10.46188 | 33444 ft | 447 kts | 137° |
| 2026-05-04 08:51 | 48.78136 | 10.49582 | 33707 ft | 448 kts | 136° |
| 2026-05-04 08:51 | 48.75992 | 10.53014 | 33963 ft | 450 kts | 137° |
| 2026-05-04 08:51 | 48.73830 | 10.56470 | 34222 ft | 451 kts | 137° |
| 2026-05-04 08:52 | 48.71665 | 10.59926 | 34482 ft | 452 kts | 137° |
| 2026-05-04 08:52 | 48.69521 | 10.63343 | 34739 ft | 453 kts | 137° |
| 2026-05-04 08:52 | 48.67298 | 10.66878 | 34950 ft | 454 kts | 137° |
| 2026-05-04 08:52 | 48.65105 | 10.70363 | 34992 ft | 454 kts | 137° |
| 2026-05-04 08:54 | 48.47751 | 10.98020 | 35007 ft | 456 kts | 137° |
| 2026-05-04 08:55 | 48.43338 | 11.04905 | 35009 ft | 456 kts | 137° |
| 2026-05-04 08:55 | 48.38943 | 11.11733 | 35006 ft | 456 kts | 137° |
| 2026-05-04 08:57 | 48.24245 | 11.36811 | 35005 ft | 463 kts | 125° |
| 2026-05-04 09:01 | 48.01362 | 11.95412 | 35004 ft | 466 kts | 123° |
| 2026-05-04 09:01 | 47.98055 | 12.03787 | 35009 ft | 467 kts | 123° |
| 2026-05-04 09:02 | 47.94432 | 12.11791 | 35010 ft | 464 kts | 130° |
| 2026-05-04 09:02 | 47.90226 | 12.19028 | 35013 ft | 461 kts | 137° |
| 2026-05-04 09:03 | 47.85473 | 12.25478 | 35033 ft | 459 kts | 142° |
| 2026-05-04 09:03 | 47.80580 | 12.31567 | 35035 ft | 459 kts | 142° |
| 2026-05-04 09:04 | 47.75676 | 12.37674 | 35062 ft | 459 kts | 142° |
| 2026-05-04 09:04 | 47.70775 | 12.43777 | 35074 ft | 459 kts | 142° |
| 2026-05-04 09:05 | 47.65880 | 12.49857 | 35075 ft | 459 kts | 142° |
| 2026-05-04 09:05 | 47.60960 | 12.55915 | 35079 ft | 459 kts | 143° |
| 2026-05-04 09:06 | 47.55958 | 12.61820 | 35085 ft | 459 kts | 143° |
| 2026-05-04 09:08 | 47.35945 | 12.85232 | 35096 ft | 459 kts | 143° |
| 2026-05-04 09:08 | 47.30905 | 12.91101 | 35109 ft | 460 kts | 143° |
| 2026-05-04 09:09 | 47.25927 | 12.96885 | 35117 ft | 460 kts | 143° |
| 2026-05-04 09:09 | 47.20885 | 13.02729 | 35115 ft | 460 kts | 143° |
| 2026-05-04 09:10 | 47.15873 | 13.08522 | 35115 ft | 459 kts | 143° |
| 2026-05-04 09:10 | 47.10880 | 13.14277 | 35120 ft | 459 kts | 143° |
| 2026-05-04 09:11 | 47.05849 | 13.20063 | 35136 ft | 460 kts | 143° |
| 2026-05-04 09:11 | 47.00847 | 13.25799 | 35134 ft | 460 kts | 143° |
| 2026-05-04 09:12 | 46.95798 | 13.31577 | 35136 ft | 459 kts | 143° |
| 2026-05-04 09:14 | 46.75677 | 13.54445 | 35127 ft | 459 kts | 143° |
| 2026-05-04 09:14 | 46.70651 | 13.60126 | 35130 ft | 459 kts | 143° |
| 2026-05-04 09:15 | 46.65599 | 13.65825 | 35126 ft | 459 kts | 143° |
| 2026-05-04 09:15 | 46.60542 | 13.71515 | 35122 ft | 458 kts | 143° |
| 2026-05-04 09:17 | 46.37834 | 13.96894 | 35106 ft | 459 kts | 143° |
| 2026-05-04 09:18 | 46.32777 | 14.02510 | 35106 ft | 459 kts | 143° |
| 2026-05-04 09:18 | 46.27704 | 14.08130 | 35104 ft | 460 kts | 143° |
| 2026-05-04 09:19 | 46.22651 | 14.13715 | 35100 ft | 461 kts | 143° |
| 2026-05-04 09:19 | 46.17557 | 14.19330 | 35094 ft | 461 kts | 143° |
| 2026-05-04 09:20 | 46.12484 | 14.24907 | 35087 ft | 460 kts | 143° |
| 2026-05-04 09:20 | 46.07392 | 14.30491 | 35083 ft | 461 kts | 143° |
| 2026-05-04 09:21 | 46.02282 | 14.36084 | 35079 ft | 462 kts | 143° |
| 2026-05-04 09:21 | 45.97166 | 14.41671 | 35078 ft | 463 kts | 143° |
| 2026-05-04 09:22 | 45.92012 | 14.47286 | 35076 ft | 464 kts | 143° |
| 2026-05-04 09:22 | 45.86900 | 14.52844 | 35082 ft | 464 kts | 143° |
| 2026-05-04 09:23 | 45.81743 | 14.58433 | 35084 ft | 465 kts | 143° |
| 2026-05-04 09:23 | 45.76588 | 14.64007 | 35090 ft | 465 kts | 143° |
| 2026-05-04 09:25 | 45.55861 | 14.86290 | 35100 ft | 468 kts | 144° |
| 2026-05-04 09:26 | 45.50660 | 14.91850 | 35101 ft | 468 kts | 144° |
| 2026-05-04 09:26 | 45.45447 | 14.97407 | 35104 ft | 468 kts | 144° |
| 2026-05-04 09:27 | 45.40261 | 15.02924 | 35114 ft | 469 kts | 144° |
| 2026-05-04 09:27 | 45.35009 | 15.08496 | 35114 ft | 470 kts | 144° |
| 2026-05-04 09:28 | 45.29791 | 15.14022 | 35109 ft | 471 kts | 144° |
| 2026-05-04 09:28 | 45.24529 | 15.19581 | 35110 ft | 470 kts | 144° |
| 2026-05-04 09:29 | 45.19313 | 15.25079 | 35110 ft | 470 kts | 144° |
| 2026-05-04 09:29 | 45.14075 | 15.30585 | 35105 ft | 469 kts | 144° |
| 2026-05-04 09:30 | 45.08854 | 15.36061 | 35102 ft | 470 kts | 143° |
| 2026-05-04 09:30 | 45.03586 | 15.41573 | 35102 ft | 471 kts | 143° |
| 2026-05-04 09:31 | 44.98333 | 15.47058 | 35106 ft | 472 kts | 143° |
| 2026-05-04 09:31 | 44.93058 | 15.52551 | 35107 ft | 472 kts | 143° |
| 2026-05-04 09:32 | 44.87742 | 15.58075 | 35107 ft | 471 kts | 143° |
| 2026-05-04 09:34 | 44.66591 | 15.79925 | 35107 ft | 472 kts | 144° |
| 2026-05-04 09:34 | 44.61314 | 15.85345 | 35107 ft | 473 kts | 144° |
| 2026-05-04 09:35 | 44.56000 | 15.90791 | 35108 ft | 473 kts | 144° |
| 2026-05-04 09:35 | 44.50673 | 15.96237 | 35107 ft | 473 kts | 144° |
| 2026-05-04 09:37 | 44.29266 | 16.17997 | 35125 ft | 478 kts | 144° |
| 2026-05-04 09:38 | 44.23884 | 16.23436 | 35128 ft | 478 kts | 144° |
| 2026-05-04 09:38 | 44.18474 | 16.28893 | 35127 ft | 478 kts | 144° |
| 2026-05-04 09:39 | 44.13080 | 16.34319 | 35129 ft | 478 kts | 144° |
| 2026-05-04 09:39 | 44.07646 | 16.39774 | 35133 ft | 478 kts | 144° |
| 2026-05-04 09:40 | 44.02238 | 16.45188 | 35136 ft | 480 kts | 144° |
| 2026-05-04 09:40 | 43.96830 | 16.50593 | 35142 ft | 481 kts | 144° |
| 2026-05-04 09:42 | 43.75080 | 16.72195 | 35140 ft | 482 kts | 145° |
| 2026-05-04 09:43 | 43.69616 | 16.77591 | 35129 ft | 482 kts | 145° |
| 2026-05-04 09:43 | 43.64151 | 16.82976 | 35132 ft | 483 kts | 145° |
| 2026-05-04 09:44 | 43.58704 | 16.88330 | 35137 ft | 484 kts | 144° |
| 2026-05-04 09:46 | 43.36755 | 17.09785 | 35124 ft | 485 kts | 144° |
| 2026-05-04 09:46 | 43.31282 | 17.15107 | 35121 ft | 486 kts | 144° |
| 2026-05-04 09:47 | 43.25765 | 17.20458 | 35122 ft | 486 kts | 144° |
| 2026-05-04 09:49 | 43.03610 | 17.41814 | 35112 ft | 487 kts | 144° |
| 2026-05-04 09:51 | 42.84631 | 17.61195 | 35104 ft | 490 kts | 138° |
| 2026-05-04 09:51 | 42.79488 | 17.67214 | 35101 ft | 490 kts | 139° |
| 2026-05-04 09:52 | 42.74294 | 17.73267 | 35102 ft | 490 kts | 139° |
| 2026-05-04 09:52 | 42.69093 | 17.79305 | 35100 ft | 490 kts | 139° |
| 2026-05-04 09:53 | 42.63926 | 17.85288 | 35105 ft | 490 kts | 139° |
| 2026-05-04 09:53 | 42.58734 | 17.91284 | 35111 ft | 490 kts | 139° |
| 2026-05-04 09:54 | 42.53567 | 17.97241 | 35113 ft | 491 kts | 139° |
| 2026-05-04 09:54 | 42.48380 | 18.03207 | 35110 ft | 492 kts | 139° |
| 2026-05-04 09:55 | 42.43177 | 18.09176 | 35111 ft | 492 kts | 139° |
| 2026-05-04 09:55 | 42.37922 | 18.15192 | 35111 ft | 492 kts | 138° |
| 2026-05-04 09:56 | 42.32700 | 18.21157 | 35121 ft | 493 kts | 138° |
| 2026-05-04 09:56 | 42.27478 | 18.27106 | 35114 ft | 493 kts | 138° |
| 2026-05-04 09:57 | 42.22240 | 18.33058 | 35120 ft | 493 kts | 138° |
| 2026-05-04 09:57 | 42.17006 | 18.38998 | 35121 ft | 493 kts | 138° |
| 2026-05-04 09:58 | 42.11779 | 18.44912 | 35120 ft | 493 kts | 138° |
| 2026-05-04 09:58 | 42.06509 | 18.50864 | 35122 ft | 494 kts | 138° |
| 2026-05-04 10:00 | 41.84891 | 18.73747 | 35118 ft | 497 kts | 144° |
| 2026-05-04 10:04 | 41.44854 | 19.10061 | 35119 ft | 501 kts | 153° |
| 2026-05-04 10:04 | 41.38455 | 19.13698 | 35114 ft | 501 kts | 160° |
| 2026-05-04 10:05 | 41.31921 | 19.16854 | 35111 ft | 501 kts | 160° |
| 2026-05-04 10:05 | 41.25365 | 19.20018 | 35123 ft | 501 kts | 160° |
| 2026-05-04 10:06 | 41.18849 | 19.23177 | 35126 ft | 500 kts | 160° |
| 2026-05-04 10:06 | 41.12346 | 19.26331 | 35063 ft | 498 kts | 160° |
| 2026-05-04 10:08 | 40.92193 | 19.36068 | 28911 ft | 534 kts | 159° |
| 2026-05-04 10:08 | 40.88723 | 19.37739 | 27996 ft | 533 kts | 159° |
| 2026-05-04 10:08 | 40.85228 | 19.39420 | 27463 ft | 532 kts | 159° |
| 2026-05-04 10:08 | 40.81699 | 19.41117 | 26973 ft | 533 kts | 159° |
| 2026-05-04 10:09 | 40.78277 | 19.42760 | 26468 ft | 524 kts | 159° |
| 2026-05-04 10:09 | 40.74923 | 19.44367 | 25744 ft | 503 kts | 159° |
| 2026-05-04 10:09 | 40.71685 | 19.45912 | 25159 ft | 479 kts | 159° |
| 2026-05-04 10:09 | 40.68604 | 19.47382 | 24631 ft | 460 kts | 158° |
| 2026-05-04 10:10 | 40.65668 | 19.48785 | 24141 ft | 449 kts | 158° |
| 2026-05-04 10:10 | 40.62747 | 19.50179 | 23666 ft | 446 kts | 158° |
| 2026-05-04 10:10 | 40.59824 | 19.51575 | 23179 ft | 442 kts | 158° |
| 2026-05-04 10:10 | 40.56956 | 19.52942 | 22693 ft | 439 kts | 158° |
| 2026-05-04 10:11 | 40.54065 | 19.54321 | 22211 ft | 435 kts | 158° |
| 2026-05-04 10:11 | 40.51265 | 19.55652 | 21751 ft | 431 kts | 158° |
| 2026-05-04 10:11 | 40.48428 | 19.56998 | 21263 ft | 428 kts | 158° |
| 2026-05-04 10:11 | 40.45619 | 19.58330 | 20779 ft | 425 kts | 158° |
| 2026-05-04 10:12 | 40.42870 | 19.59633 | 20322 ft | 422 kts | 158° |
| 2026-05-04 10:12 | 40.40111 | 19.60938 | 19842 ft | 419 kts | 158° |
| 2026-05-04 10:12 | 40.37376 | 19.62231 | 19371 ft | 416 kts | 158° |
| 2026-05-04 10:12 | 40.34649 | 19.63519 | 18905 ft | 413 kts | 158° |
| 2026-05-04 10:13 | 40.31964 | 19.64787 | 18444 ft | 410 kts | 158° |
| 2026-05-04 10:13 | 40.29252 | 19.66067 | 17984 ft | 407 kts | 158° |
| 2026-05-04 10:13 | 40.26585 | 19.67324 | 17526 ft | 404 kts | 158° |
| 2026-05-04 10:13 | 40.23967 | 19.68556 | 17076 ft | 401 kts | 158° |
| 2026-05-04 10:14 | 40.21379 | 19.69772 | 16668 ft | 396 kts | 158° |
| 2026-05-04 10:14 | 40.18784 | 19.70991 | 16405 ft | 391 kts | 158° |
| 2026-05-04 10:16 | 40.00902 | 19.79368 | 16163 ft | 392 kts | 158° |
| 2026-05-04 10:16 | 39.98334 | 19.80566 | 16164 ft | 391 kts | 158° |
| 2026-05-04 10:16 | 39.95789 | 19.81752 | 16162 ft | 391 kts | 158° |
| 2026-05-04 10:16 | 39.93208 | 19.82956 | 16173 ft | 391 kts | 158° |
| 2026-05-04 10:17 | 39.90663 | 19.84140 | 16168 ft | 391 kts | 158° |
| 2026-05-04 10:17 | 39.88123 | 19.85359 | 16104 ft | 390 kts | 157° |
| 2026-05-04 10:19 | 39.72546 | 19.82118 | 13512 ft | 338 kts | 254° |
| 2026-05-04 10:19 | 39.71777 | 19.79321 | 13105 ft | 320 kts | 256° |
| 2026-05-04 10:19 | 39.71020 | 19.76693 | 12698 ft | 307 kts | 253° |
| 2026-05-04 10:19 | 39.70190 | 19.74199 | 12314 ft | 299 kts | 250° |
| 2026-05-04 10:20 | 39.69236 | 19.71787 | 11943 ft | 300 kts | 244° |
| 2026-05-04 10:20 | 39.68051 | 19.69570 | 11605 ft | 301 kts | 235° |
| 2026-05-04 10:20 | 39.66637 | 19.67596 | 11258 ft | 301 kts | 227° |
| 2026-05-04 10:20 | 39.65028 | 19.65824 | 10900 ft | 301 kts | 220° |
| 2026-05-04 10:21 | 39.63307 | 19.64278 | 10617 ft | 299 kts | 215° |
| 2026-05-04 10:21 | 39.61526 | 19.62939 | 10441 ft | 300 kts | 210° |
| 2026-05-04 10:21 | 39.59646 | 19.61745 | 10292 ft | 300 kts | 206° |
| 2026-05-04 10:21 | 39.57716 | 19.60711 | 10143 ft | 300 kts | 202° |
| 2026-05-04 10:22 | 39.53740 | 19.59093 | 9567 ft | 298 kts | 195° |
| 2026-05-04 10:22 | 39.51714 | 19.58509 | 9282 ft | 296 kts | 192° |
| 2026-05-04 10:22 | 39.49681 | 19.58180 | 8972 ft | 295 kts | 182° |
| 2026-05-04 10:23 | 39.47635 | 19.58361 | 8577 ft | 293 kts | 169° |
| 2026-05-04 10:23 | 39.45687 | 19.59078 | 8174 ft | 289 kts | 156° |
| 2026-05-04 10:25 | 39.39579 | 19.73000 | 6256 ft | 260 kts | 82° |
| 2026-05-04 10:25 | 39.39688 | 19.75329 | 5848 ft | 259 kts | 84° |
| 2026-05-04 10:25 | 39.39756 | 19.77648 | 5223 ft | 261 kts | 85° |
| 2026-05-04 10:25 | 39.39813 | 19.79982 | 4754 ft | 263 kts | 85° |
| 2026-05-04 10:26 | 39.39857 | 19.82340 | 4403 ft | 262 kts | 86° |
| 2026-05-04 10:26 | 39.39891 | 19.84672 | 4066 ft | 260 kts | 86° |
| 2026-05-04 10:26 | 39.39980 | 19.87003 | 3727 ft | 258 kts | 81° |
| 2026-05-04 10:26 | 39.40318 | 19.89231 | 3502 ft | 249 kts | 72° |
| 2026-05-04 10:27 | 39.40780 | 19.91324 | 3465 ft | 234 kts | 71° |
| 2026-05-04 10:27 | 39.41230 | 19.93283 | 3418 ft | 220 kts | 71° |
| 2026-05-04 10:27 | 39.41920 | 19.94943 | 3346 ft | 202 kts | 40° |
| 2026-05-04 10:27 | 39.43105 | 19.95684 | 3233 ft | 186 kts | 7° |
| 2026-05-04 10:28 | 39.44367 | 19.95510 | 2950 ft | 184 kts | 347° |
| 2026-05-04 10:28 | 39.45613 | 19.95067 | 2680 ft | 184 kts | 345° |
| 2026-05-04 10:28 | 39.46845 | 19.94661 | 2468 ft | 185 kts | 347° |
| 2026-05-04 10:28 | 39.48109 | 19.94306 | 2190 ft | 185 kts | 349° |
| 2026-05-04 10:29 | 39.49371 | 19.93982 | 1945 ft | 185 kts | 350° |
| 2026-05-04 10:29 | 39.50600 | 19.93671 | 1703 ft | 172 kts | 350° |
| 2026-05-04 10:29 | 39.51719 | 19.93385 | 1469 ft | 155 kts | 349° |
| 2026-05-04 10:29 | 39.52719 | 19.93128 | 1276 ft | 140 kts | 349° |
| 2026-05-04 10:30 | 39.53669 | 19.92893 | 1104 ft | 139 kts | 349° |
| 2026-05-04 10:30 | 39.54615 | 19.92636 | 968 ft | 139 kts | 348° |
| 2026-05-04 10:30 | 39.55565 | 19.92375 | 844 ft | 139 kts | 350° |
| 2026-05-04 10:30 | 39.56514 | 19.92142 | 676 ft | 139 kts | 349° |
| 2026-05-04 10:31 | 39.57463 | 19.91906 | 471 ft | 139 kts | 349° |
| 2026-05-04 10:31 | 39.58408 | 19.91665 | 248 ft | 139 kts | 351° |
| 2026-05-04 10:32 | 39.60990 | 19.91145 | 7 ft | 10 kts | 161° |
| 2026-05-04 10:33 | 39.60931 | 19.91188 | 6 ft | 10 kts | 96° |